Le Boreal — FLSY — position and weather

sailwx.info

Track history (hours):
 
Tides and Currents Weather Stations Pressure Air Temp Water Temp Dewpoint Dewpoint Depression Visibility Wind Speed Wind Dir Waves Ship Positions

Le Boreal

Last reported at 2017-May-29 20:04 UTC. Time now 2017-May-29 20:39 UTC.
Position N 53°19' W 010°13'.

Length 140 m; draft 5.1 m.

Type: Passenger vessel. MMSI: 578000500.

Date/timePositionNaut miles runAvg speedWind from/ knotsBaromVisibWave heightAir tempDewpointWater temp
2017-May-29 20:04N 53°19' W 010°13'115.0
2017-May-29 20:00N 53°18' W 010°12'814.6
2017-May-29 19:26N 53°13' W 010°01'714.6
2017-May-29 18:58N 53°12' W 009°49'16 1.1
2017-May-29 03:47N 53°07' W 009°24'1 0.7
2017-May-29 02:44N 53°08' W 009°23'1 0.2
2017-May-28 23:44N 53°08' W 009°23'2 7.9
2017-May-28 23:29N 53°07' W 009°25'5 2.5
2017-May-28 21:22N 53°09' W 009°33'3 0.4
2017-May-28 11:39N 53°06' W 009°31'2 9.7
2017-May-28 11:25N 53°04' W 009°29'4 9.7
2017-May-28 11:00N 53°00' W 009°27'2 4.0
2017-May-28 10:29N 52°58' W 009°27'1 3.0
2017-May-28 10:00N 52°57' W 009°29'5 9.9
2017-May-28 09:30N 52°54' W 009°35'8411.1
2017-May-28 01:54N 51°34' W 010°22'513.6
2017-May-28 01:30N 51°31' W 010°14'613.1
2017-May-28 01:00N 51°29' W 010°05'713.1
2017-May-28 00:31N 51°26' W 009°55'713.5
2017-May-28 00:00N 51°23' W 009°46'713.4
2017-May-27 23:30N 51°21' W 009°35'713.2
2017-May-27 23:01N 51°23' W 009°25'714.0
2017-May-27 22:30N 51°25' W 009°15'1013.9
2017-May-27 21:48N 51°28' W 008°60'913.9
2017-May-27 21:08N 51°31' W 008°45'213.8
2017-May-27 21:01N 51°31' W 008°43'713.4
2017-May-27 20:31N 51°34' W 008°33'612.9
2017-May-27 20:00N 51°37' W 008°24'612.9
2017-May-27 19:31N 51°42' W 008°16'611.2
2017-May-27 19:00N 51°47' W 008°16'4 7.8
2017-May-27 18:30N 51°51' W 008°17'4 7.1
2017-May-27 18:00N 51°53' W 008°22'3 6.6
2017-May-27 17:30N 51°54' W 008°27'0 0.8
2017-May-27 16:59N 51°54' W 008°28'0 0.0
2017-May-27 16:29N 51°54' W 008°28'0 0.0
2017-May-27 15:59N 51°54' W 008°28'0 0.0
2017-May-27 15:29N 51°54' W 008°28'0 0.0
2017-May-27 12:47N 51°54' W 008°28'0 0.0
2017-May-27 12:14N 51°54' W 008°28'0 0.0
2017-May-27 11:59N 51°54' W 008°28'0 0.0
2017-May-27 11:08N 51°54' W 008°28'0 0.0
2017-May-27 07:33N 51°54' W 008°28'0 0.0
2017-May-27 07:27N 51°54' W 008°28'0 0.0
2017-May-27 06:57N 51°54' W 008°28'0 0.1
2017-May-27 06:29N 51°54' W 008°28'0 0.5
2017-May-27 05:50N 51°54' W 008°27'1 3.6
2017-May-27 05:30N 51°54' W 008°25'4 8.1
2017-May-27 05:00N 51°52' W 008°20'3 6.0
2017-May-27 04:31N 51°50' W 008°16'510.0
2017-May-27 04:00N 51°45' W 008°15'5 9.8
2017-May-27 03:30N 51°41' W 008°11'511.0
2017-May-27 03:00N 51°36' W 008°06'611.8
2017-May-27 02:31N 51°31' W 008°01'611.9
2017-May-27 02:00N 51°26' W 007°56'612.9
2017-May-27 01:30N 51°21' W 007°50'130 7.5
2017-May-26 08:14N 49°53' W 005°20'514.5
2017-May-26 07:55N 49°53' W 005°13'614.2
2017-May-26 07:30N 49°54' W 005°04'714.4
2017-May-26 07:00N 49°54' W 004°52'714.2
2017-May-26 06:31N 49°55' W 004°41'713.9
2017-May-26 06:00N 49°55' W 004°31'713.7
2017-May-26 05:30N 49°56' W 004°20'713.7
2017-May-26 05:00N 49°57' W 004°09'713.9
2017-May-26 04:30N 49°57' W 003°59'714.3
2017-May-26 04:01N 49°58' W 003°48'714.8
2017-May-26 03:31N 49°58' W 003°36'815.5
2017-May-26 03:00N 49°59' W 003°24'816.1
2017-May-26 02:31N 49°60' W 003°12'917.0
2017-May-26 02:00N 50°00' W 002°59'917.7
2017-May-26 01:30N 50°01' W 002°44'6316.5
2017-May-25 21:40N 49°50' W 001°08'213.7
2017-May-25 21:30N 49°49' W 001°05'713.4
2017-May-25 21:01N 49°45' W 000°56'713.1
2017-May-25 20:30N 49°42' W 000°47'713.1
2017-May-25 20:01N 49°40' W 000°38'713.2
2017-May-25 19:30N 49°37' W 000°29'713.5
2017-May-25 19:00N 49°33' W 000°19'713.8
2017-May-25 18:30N 49°30' W 000°10'713.3
2017-May-25 18:01N 49°28' W 000°01'611.5
2017-May-25 17:31N 49°26' E 000°08'5 9.1
2017-May-25 17:00N 49°26' E 000°15'0 0.7
2017-May-25 16:30N 49°26' E 000°14'0 0.0
2017-May-25 16:00N 49°26' E 000°14'0 0.0
2017-May-25 15:30N 49°26' E 000°14'0 0.0
2017-May-25 15:00N 49°26' E 000°14'0 0.0
2017-May-25 14:00N 49°26' E 000°14'0 0.0
2017-May-25 13:30N 49°26' E 000°14'0 0.0
2017-May-25 13:00N 49°26' E 000°14'0 0.0
2017-May-25 12:30N 49°26' E 000°14'0 0.0
2017-May-25 12:00N 49°26' E 000°14'0 0.0
2017-May-25 11:30N 49°26' E 000°14'0 0.0
2017-May-25 11:00N 49°26' E 000°14'0 0.0
2017-May-25 10:30N 49°26' E 000°14'0 0.0
2017-May-25 10:00N 49°26' E 000°14'0 0.0
2017-May-25 09:30N 49°26' E 000°14'0 0.0
2017-May-25 09:00N 49°26' E 000°14'0 0.0
2017-May-25 08:30N 49°26' E 000°14'0 0.0
2017-May-25 08:00N 49°26' E 000°14'0 0.0
2017-May-25 07:21N 49°26' E 000°14'0 0.0
2017-May-25 07:00N 49°26' E 000°14'0 0.0
2017-May-25 06:27N 49°26' E 000°14'0 0.0
2017-May-25 06:00N 49°26' E 000°14'0 0.0
2017-May-25 05:30N 49°26' E 000°14'0 0.0
2017-May-25 05:00N 49°26' E 000°14'0 0.0
2017-May-25 04:30N 49°26' E 000°14'0 0.0
2017-May-25 04:00N 49°26' E 000°14'0 0.0
2017-May-25 03:30N 49°26' E 000°14'0 0.0
2017-May-25 03:00N 49°26' E 000°14'0 0.0
2017-May-25 02:30N 49°26' E 000°14'0 0.0
2017-May-25 02:00N 49°26' E 000°14'0 0.0
2017-May-25 01:30N 49°26' E 000°14'0 0.0
2017-May-25 01:00N 49°26' E 000°14'0 0.0
2017-May-25 00:30N 49°26' E 000°14'0 0.0
2017-May-25 00:00N 49°26' E 000°14'0 0.0
2017-May-24 23:30N 49°26' E 000°14'0 0.0
2017-May-24 23:01N 49°26' E 000°14'0 0.0
2017-May-24 22:30N 49°26' E 000°14'2 4.0
2017-May-24 22:01N 49°26' E 000°11'714.6
2017-May-24 21:31N 49°28' E 000°00'611.9
2017-May-24 21:01N 49°25' W 000°08'714.2
2017-May-24 20:31N 49°19' W 000°15'3 5.2
2017-May-24 20:00N 49°17' W 000°15'1 2.7
2017-May-24 19:31N 49°15' W 000°16'4 7.3
2017-May-24 19:00N 49°12' W 000°19'2 3.4
2017-May-24 18:30N 49°11' W 000°20'0 0.0
2017-May-24 18:00N 49°11' W 000°20'0 0.0
2017-May-24 17:28N 49°11' W 000°20'0 0.0
2017-May-24 16:58N 49°11' W 000°20'0 0.0
2017-May-24 16:28N 49°11' W 000°20'0 0.0
2017-May-24 15:58N 49°11' W 000°20'0 0.0
2017-May-24 15:25N 49°11' W 000°20'0 0.0
2017-May-24 14:58N 49°11' W 000°20'0 0.0
2017-May-24 13:58N 49°11' W 000°20'0 0.0
2017-May-24 13:22N 49°11' W 000°20'0 0.0
2017-May-24 12:49N 49°11' W 000°20'0 0.0
2017-May-24 12:28N 49°11' W 000°20'0 0.0
2017-May-24 11:40N 49°11' W 000°20'0 0.0
2017-May-24 11:16N 49°11' W 000°20'0 0.0
2017-May-24 10:58N 49°11' W 000°20'0 0.0
2017-May-24 10:22N 49°11' W 000°20'0 0.0
2017-May-24 09:52N 49°11' W 000°20'0 0.0
2017-May-24 09:22N 49°11' W 000°20'0 0.0
2017-May-24 08:59N 49°11' W 000°20'0 0.0
2017-May-24 08:29N 49°11' W 000°20'0 0.0
2017-May-24 08:00N 49°11' W 000°20'3 3.9
2017-May-24 07:21N 49°13' W 000°18'2 7.1
2017-May-24 07:00N 49°15' W 000°16'2 3.3
2017-May-24 06:30N 49°17' W 000°15'0 0.0
2017-May-24 06:00N 49°17' W 000°15'0 0.0
2017-May-24 05:30N 49°17' W 000°15'0 0.8
2017-May-24 05:00N 49°17' W 000°15'4 8.7
2017-May-24 04:30N 49°21' W 000°14'4 8.0
2017-May-24 04:00N 49°25' W 000°15'4 8.9
2017-May-24 03:30N 49°28' W 000°21'4 8.7
2017-May-24 03:00N 49°30' W 000°27'4 8.1
2017-May-24 02:30N 49°32' W 000°33'4 7.6
2017-May-24 02:00N 49°34' W 000°37'4 7.6
2017-May-24 01:30N 49°36' W 000°42'4 7.6
2017-May-24 01:00N 49°38' W 000°47'4 7.1
2017-May-24 00:30N 49°40' W 000°52'4 6.5
2017-May-23 23:55N 49°42' W 000°57'9311.4
2017-May-23 15:46N 49°48' W 003°20'514.2
2017-May-23 15:23N 49°48' W 003°29'22311.4
2017-May-22 19:51N 53°11' W 005°58'514.9
2017-May-22 19:30N 53°16' W 006°01'611.6
2017-May-22 19:00N 53°20' W 006°07'4 7.9
2017-May-22 18:30N 53°21' W 006°13'0 0.0
2017-May-22 17:58N 53°21' W 006°13'0 0.0
2017-May-22 17:28N 53°21' W 006°13'0 0.0
2017-May-22 16:58N 53°21' W 006°13'0 0.0
2017-May-22 16:22N 53°21' W 006°13'0 0.0
2017-May-22 15:49N 53°21' W 006°13'0 0.0
2017-May-22 15:13N 53°21' W 006°13'0 0.0
2017-May-22 14:43N 53°21' W 006°13'0 0.0
2017-May-22 13:58N 53°21' W 006°13'0 0.0
2017-May-22 13:28N 53°21' W 006°13'0 0.0
2017-May-22 12:58N 53°21' W 006°13'0 0.0
2017-May-22 12:28N 53°21' W 006°13'0 0.0
2017-May-22 11:58N 53°21' W 006°13'0 0.0
2017-May-22 11:25N 53°21' W 006°13'0 0.0
2017-May-22 10:49N 53°21' W 006°13'0 0.0
2017-May-22 10:16N 53°21' W 006°13'0 0.0
2017-May-22 09:34N 53°21' W 006°13'0 0.0
2017-May-22 09:10N 53°21' W 006°13'0 0.0
2017-May-22 08:58N 53°21' W 006°13'0 0.0
2017-May-22 08:04N 53°21' W 006°13'0 0.0
2017-May-22 07:55N 53°21' W 006°13'0 0.0
2017-May-22 07:28N 53°21' W 006°13'0 0.0
2017-May-22 06:58N 53°21' W 006°13'0 0.0
2017-May-22 06:25N 53°21' W 006°13'0 0.0
2017-May-22 05:55N 53°21' W 006°13'0 0.5
2017-May-22 05:30N 53°21' W 006°13'1 2.1
2017-May-22 05:00N 53°21' W 006°11'510.0
2017-May-22 04:30N 53°20' W 006°03'510.1
2017-May-22 04:00N 53°20' W 005°55'510.4
2017-May-22 03:30N 53°20' W 005°46'54 2.2
2017-May-21 02:54N 54°10' W 005°10'615.7
2017-May-21 02:30N 54°16' W 005°12'815.5
2017-May-21 02:01N 54°23' W 005°14'815.9
2017-May-21 01:30N 54°31' W 005°18'1115.6
2017-May-21 00:50N 54°41' W 005°21'4714.0
2017-May-20 21:28N 55°20' W 006°08'613.8
2017-May-20 21:00N 55°24' W 006°17'713.9
2017-May-20 20:30N 55°30' W 006°24'713.8
2017-May-20 20:01N 55°35' W 006°30'612.8
2017-May-20 19:31N 55°41' W 006°36'714.1
2017-May-20 19:01N 55°48' W 006°37'  
Track history (hours):
 
Tides and Currents Weather Stations Pressure Air Temp Water Temp Dewpoint Dewpoint Depression Visibility Wind Speed Wind Dir Waves Ship Positions

Le Boreal

Last reported at 2017-May-29 20:04 UTC. Time now 2017-May-29 20:39 UTC.
Position N 53°19' W 010°13'.

Length 140 m; draft 5.1 m.

Type: Passenger vessel. MMSI: 578000500.

Date/timePositionNaut miles runAvg speedWind from/ knotsBaromVisibWave heightAir tempDewpointWater temp
2017-May-29 20:04N 53°19' W 010°13'115.0
2017-May-29 20:00N 53°18' W 010°12'814.6
2017-May-29 19:26N 53°13' W 010°01'714.6
2017-May-29 18:58N 53°12' W 009°49'16 1.1
2017-May-29 03:47N 53°07' W 009°24'1 0.7
2017-May-29 02:44N 53°08' W 009°23'1 0.2
2017-May-28 23:44N 53°08' W 009°23'2 7.9
2017-May-28 23:29N 53°07' W 009°25'5 2.5
2017-May-28 21:22N 53°09' W 009°33'3 0.4
2017-May-28 11:39N 53°06' W 009°31'2 9.7
2017-May-28 11:25N 53°04' W 009°29'4 9.7
2017-May-28 11:00N 53°00' W 009°27'2 4.0
2017-May-28 10:29N 52°58' W 009°27'1 3.0
2017-May-28 10:00N 52°57' W 009°29'5 9.9
2017-May-28 09:30N 52°54' W 009°35'8411.1
2017-May-28 01:54N 51°34' W 010°22'513.6
2017-May-28 01:30N 51°31' W 010°14'613.1
2017-May-28 01:00N 51°29' W 010°05'713.1
2017-May-28 00:31N 51°26' W 009°55'713.5
2017-May-28 00:00N 51°23' W 009°46'713.4
2017-May-27 23:30N 51°21' W 009°35'713.2
2017-May-27 23:01N 51°23' W 009°25'714.0
2017-May-27 22:30N 51°25' W 009°15'1013.9
2017-May-27 21:48N 51°28' W 008°60'913.9
2017-May-27 21:08N 51°31' W 008°45'213.8
2017-May-27 21:01N 51°31' W 008°43'713.4
2017-May-27 20:31N 51°34' W 008°33'612.9
2017-May-27 20:00N 51°37' W 008°24'612.9
2017-May-27 19:31N 51°42' W 008°16'611.2
2017-May-27 19:00N 51°47' W 008°16'4 7.8
2017-May-27 18:30N 51°51' W 008°17'4 7.1
2017-May-27 18:00N 51°53' W 008°22'3 6.6
2017-May-27 17:30N 51°54' W 008°27'0 0.8
2017-May-27 16:59N 51°54' W 008°28'0 0.0
2017-May-27 16:29N 51°54' W 008°28'0 0.0
2017-May-27 15:59N 51°54' W 008°28'0 0.0
2017-May-27 15:29N 51°54' W 008°28'0 0.0
2017-May-27 12:47N 51°54' W 008°28'0 0.0
2017-May-27 12:14N 51°54' W 008°28'0 0.0
2017-May-27 11:59N 51°54' W 008°28'0 0.0
2017-May-27 11:08N 51°54' W 008°28'0 0.0
2017-May-27 07:33N 51°54' W 008°28'0 0.0
2017-May-27 07:27N 51°54' W 008°28'0 0.0
2017-May-27 06:57N 51°54' W 008°28'0 0.1
2017-May-27 06:29N 51°54' W 008°28'0 0.5
2017-May-27 05:50N 51°54' W 008°27'1 3.6
2017-May-27 05:30N 51°54' W 008°25'4 8.1
2017-May-27 05:00N 51°52' W 008°20'3 6.0
2017-May-27 04:31N 51°50' W 008°16'510.0
2017-May-27 04:00N 51°45' W 008°15'5 9.8
2017-May-27 03:30N 51°41' W 008°11'511.0
2017-May-27 03:00N 51°36' W 008°06'611.8
2017-May-27 02:31N 51°31' W 008°01'611.9
2017-May-27 02:00N 51°26' W 007°56'612.9
2017-May-27 01:30N 51°21' W 007°50'130 7.5
2017-May-26 08:14N 49°53' W 005°20'514.5
2017-May-26 07:55N 49°53' W 005°13'614.2
2017-May-26 07:30N 49°54' W 005°04'714.4
2017-May-26 07:00N 49°54' W 004°52'714.2
2017-May-26 06:31N 49°55' W 004°41'713.9
2017-May-26 06:00N 49°55' W 004°31'713.7
2017-May-26 05:30N 49°56' W 004°20'713.7
2017-May-26 05:00N 49°57' W 004°09'713.9
2017-May-26 04:30N 49°57' W 003°59'714.3
2017-May-26 04:01N 49°58' W 003°48'714.8
2017-May-26 03:31N 49°58' W 003°36'815.5
2017-May-26 03:00N 49°59' W 003°24'816.1
2017-May-26 02:31N 49°60' W 003°12'917.0
2017-May-26 02:00N 50°00' W 002°59'917.7
2017-May-26 01:30N 50°01' W 002°44'6316.5
2017-May-25 21:40N 49°50' W 001°08'213.7
2017-May-25 21:30N 49°49' W 001°05'713.4
2017-May-25 21:01N 49°45' W 000°56'713.1
2017-May-25 20:30N 49°42' W 000°47'713.1
2017-May-25 20:01N 49°40' W 000°38'713.2
2017-May-25 19:30N 49°37' W 000°29'713.5
2017-May-25 19:00N 49°33' W 000°19'713.8
2017-May-25 18:30N 49°30' W 000°10'713.3
2017-May-25 18:01N 49°28' W 000°01'611.5
2017-May-25 17:31N 49°26' E 000°08'5 9.1
2017-May-25 17:00N 49°26' E 000°15'0 0.7
2017-May-25 16:30N 49°26' E 000°14'0 0.0
2017-May-25 16:00N 49°26' E 000°14'0 0.0
2017-May-25 15:30N 49°26' E 000°14'0 0.0
2017-May-25 15:00N 49°26' E 000°14'0 0.0
2017-May-25 14:00N 49°26' E 000°14'0 0.0
2017-May-25 13:30N 49°26' E 000°14'0 0.0
2017-May-25 13:00N 49°26' E 000°14'0 0.0
2017-May-25 12:30N 49°26' E 000°14'0 0.0
2017-May-25 12:00N 49°26' E 000°14'0 0.0
2017-May-25 11:30N 49°26' E 000°14'0 0.0
2017-May-25 11:00N 49°26' E 000°14'0 0.0
2017-May-25 10:30N 49°26' E 000°14'0 0.0
2017-May-25 10:00N 49°26' E 000°14'0 0.0
2017-May-25 09:30N 49°26' E 000°14'0 0.0
2017-May-25 09:00N 49°26' E 000°14'0 0.0
2017-May-25 08:30N 49°26' E 000°14'0 0.0
2017-May-25 08:00N 49°26' E 000°14'0 0.0
2017-May-25 07:21N 49°26' E 000°14'0 0.0
2017-May-25 07:00N 49°26' E 000°14'0 0.0
2017-May-25 06:27N 49°26' E 000°14'0 0.0
2017-May-25 06:00N 49°26' E 000°14'0 0.0
2017-May-25 05:30N 49°26' E 000°14'0 0.0
2017-May-25 05:00N 49°26' E 000°14'0 0.0
2017-May-25 04:30N 49°26' E 000°14'0 0.0
2017-May-25 04:00N 49°26' E 000°14'0 0.0
2017-May-25 03:30N 49°26' E 000°14'0 0.0
2017-May-25 03:00N 49°26' E 000°14'0 0.0
2017-May-25 02:30N 49°26' E 000°14'0 0.0
2017-May-25 02:00N 49°26' E 000°14'0 0.0
2017-May-25 01:30N 49°26' E 000°14'0 0.0
2017-May-25 01:00N 49°26' E 000°14'0 0.0
2017-May-25 00:30N 49°26' E 000°14'0 0.0
2017-May-25 00:00N 49°26' E 000°14'0 0.0
2017-May-24 23:30N 49°26' E 000°14'0 0.0
2017-May-24 23:01N 49°26' E 000°14'0 0.0
2017-May-24 22:30N 49°26' E 000°14'2 4.0
2017-May-24 22:01N 49°26' E 000°11'714.6
2017-May-24 21:31N 49°28' E 000°00'611.9
2017-May-24 21:01N 49°25' W 000°08'714.2
2017-May-24 20:31N 49°19' W 000°15'3 5.2
2017-May-24 20:00N 49°17' W 000°15'1 2.7
2017-May-24 19:31N 49°15' W 000°16'4 7.3
2017-May-24 19:00N 49°12' W 000°19'2 3.4
2017-May-24 18:30N 49°11' W 000°20'0 0.0
2017-May-24 18:00N 49°11' W 000°20'0 0.0
2017-May-24 17:28N 49°11' W 000°20'0 0.0
2017-May-24 16:58N 49°11' W 000°20'0 0.0
2017-May-24 16:28N 49°11' W 000°20'0 0.0
2017-May-24 15:58N 49°11' W 000°20'0 0.0
2017-May-24 15:25N 49°11' W 000°20'0 0.0
2017-May-24 14:58N 49°11' W 000°20'0 0.0
2017-May-24 13:58N 49°11' W 000°20'0 0.0
2017-May-24 13:22N 49°11' W 000°20'0 0.0
2017-May-24 12:49N 49°11' W 000°20'0 0.0
2017-May-24 12:28N 49°11' W 000°20'0 0.0
2017-May-24 11:40N 49°11' W 000°20'0 0.0
2017-May-24 11:16N 49°11' W 000°20'0 0.0
2017-May-24 10:58N 49°11' W 000°20'0 0.0
2017-May-24 10:22N 49°11' W 000°20'0 0.0
2017-May-24 09:52N 49°11' W 000°20'0 0.0
2017-May-24 09:22N 49°11' W 000°20'0 0.0
2017-May-24 08:59N 49°11' W 000°20'0 0.0
2017-May-24 08:29N 49°11' W 000°20'0 0.0
2017-May-24 08:00N 49°11' W 000°20'3 3.9
2017-May-24 07:21N 49°13' W 000°18'2 7.1
2017-May-24 07:00N 49°15' W 000°16'2 3.3
2017-May-24 06:30N 49°17' W 000°15'0 0.0
2017-May-24 06:00N 49°17' W 000°15'0 0.0
2017-May-24 05:30N 49°17' W 000°15'0 0.8
2017-May-24 05:00N 49°17' W 000°15'4 8.7
2017-May-24 04:30N 49°21' W 000°14'4 8.0
2017-May-24 04:00N 49°25' W 000°15'4 8.9
2017-May-24 03:30N 49°28' W 000°21'4 8.7
2017-May-24 03:00N 49°30' W 000°27'4 8.1
2017-May-24 02:30N 49°32' W 000°33'4 7.6
2017-May-24 02:00N 49°34' W 000°37'4 7.6
2017-May-24 01:30N 49°36' W 000°42'4 7.6
2017-May-24 01:00N 49°38' W 000°47'4 7.1
2017-May-24 00:30N 49°40' W 000°52'4 6.5
2017-May-23 23:55N 49°42' W 000°57'9311.4
2017-May-23 15:46N 49°48' W 003°20'514.2
2017-May-23 15:23N 49°48' W 003°29'22311.4
2017-May-22 19:51N 53°11' W 005°58'514.9
2017-May-22 19:30N 53°16' W 006°01'611.6
2017-May-22 19:00N 53°20' W 006°07'4 7.9
2017-May-22 18:30N 53°21' W 006°13'0 0.0
2017-May-22 17:58N 53°21' W 006°13'0 0.0
2017-May-22 17:28N 53°21' W 006°13'0 0.0
2017-May-22 16:58N 53°21' W 006°13'0 0.0
2017-May-22 16:22N 53°21' W 006°13'0 0.0
2017-May-22 15:49N 53°21' W 006°13'0 0.0
2017-May-22 15:13N 53°21' W 006°13'0 0.0
2017-May-22 14:43N 53°21' W 006°13'0 0.0
2017-May-22 13:58N 53°21' W 006°13'0 0.0
2017-May-22 13:28N 53°21' W 006°13'0 0.0
2017-May-22 12:58N 53°21' W 006°13'0 0.0
2017-May-22 12:28N 53°21' W 006°13'0 0.0
2017-May-22 11:58N 53°21' W 006°13'0 0.0
2017-May-22 11:25N 53°21' W 006°13'0 0.0
2017-May-22 10:49N 53°21' W 006°13'0 0.0
2017-May-22 10:16N 53°21' W 006°13'0 0.0
2017-May-22 09:34N 53°21' W 006°13'0 0.0
2017-May-22 09:10N 53°21' W 006°13'0 0.0
2017-May-22 08:58N 53°21' W 006°13'0 0.0
2017-May-22 08:04N 53°21' W 006°13'0 0.0
2017-May-22 07:55N 53°21' W 006°13'0 0.0
2017-May-22 07:28N 53°21' W 006°13'0 0.0
2017-May-22 06:58N 53°21' W 006°13'0 0.0
2017-May-22 06:25N 53°21' W 006°13'0 0.0
2017-May-22 05:55N 53°21' W 006°13'0 0.5
2017-May-22 05:30N 53°21' W 006°13'1 2.1
2017-May-22 05:00N 53°21' W 006°11'510.0
2017-May-22 04:30N 53°20' W 006°03'510.1
2017-May-22 04:00N 53°20' W 005°55'510.4
2017-May-22 03:30N 53°20' W 005°46'54 2.2
2017-May-21 02:54N 54°10' W 005°10'615.7
2017-May-21 02:30N 54°16' W 005°12'815.5
2017-May-21 02:01N 54°23' W 005°14'815.9
2017-May-21 01:30N 54°31' W 005°18'1115.6
2017-May-21 00:50N 54°41' W 005°21'4714.0
2017-May-20 21:28N 55°20' W 006°08'613.8
2017-May-20 21:00N 55°24' W 006°17'713.9
2017-May-20 20:30N 55°30' W 006°24'713.8
2017-May-20 20:01N 55°35' W 006°30'612.8
2017-May-20 19:31N 55°41' W 006°36'714.1
2017-May-20 19:01N 55°48' W 006°37'  

Dump ship's entire track history